Time;durP1;ratioP1;P1;durP2;ratioP2;P2;SDS_P1;SDS_P2;PMS_P1;PMS_P2;Temp;Humidity;BMP_temperature;BMP_pressure;BME280_temperature;BME280_humidity;BME280_pressure;Samples;Min_cycle;Max_cycle;Signal;HPM_P1;HPM_P2
2020/12/17 00:00:23;;;;;;;41.67;32.78;;;9.40;99.90;;;;;;5036679;28;20021;-71
2020/12/17 00:02:49;;;;;;;46.67;33.70;;;9.40;99.90;;;;;;5035429;28;20071;-70
2020/12/17 00:05:15;;;;;;;47.72;33.38;;;9.40;99.90;;;;;;5037121;28;20060;-71
2020/12/17 00:07:41;;;;;;;46.15;32.70;;;9.40;99.90;;;;;;5036629;28;20022;-74
2020/12/17 00:10:09;;;;;;;44.85;32.72;;;9.40;99.90;;;;;;5039088;28;20027;-73
2020/12/17 00:12:36;;;;;;;48.55;34.38;;;9.40;99.90;;;;;;5036978;28;20025;-74
2020/12/17 00:15:04;;;;;;;46.08;32.35;;;9.40;99.90;;;;;;5037717;28;20065;-73
2020/12/17 00:17:30;;;;;;;48.60;34.38;;;9.40;99.90;;;;;;5037767;28;20022;-73
2020/12/17 00:19:55;;;;;;;45.30;33.50;;;9.30;99.90;;;;;;5036168;28;20030;-73
2020/12/17 00:22:21;;;;;;;46.05;33.83;;;9.30;99.90;;;;;;5035488;28;20029;-70
2020/12/17 00:24:46;;;;;;;44.33;32.25;;;9.40;99.90;;;;;;5038226;28;20021;-71
2020/12/17 00:27:12;;;;;;;49.30;35.05;;;9.30;99.90;;;;;;5037190;28;20109;-70
2020/12/17 00:29:37;;;;;;;45.55;33.53;;;9.30;99.90;;;;;;5037030;28;20395;-71
2020/12/17 00:32:03;;;;;;;46.55;33.80;;;9.30;99.90;;;;;;5037963;28;20093;-71
2020/12/17 00:34:29;;;;;;;47.83;34.22;;;9.30;99.90;;;;;;5037797;28;20120;-73
2020/12/17 00:36:54;;;;;;;48.28;34.00;;;9.30;99.90;;;;;;5037078;28;20056;-71
2020/12/17 00:39:20;;;;;;;46.95;33.55;;;9.30;99.90;;;;;;5035424;28;20029;-72
2020/12/17 00:41:47;;;;;;;51.58;35.40;;;9.30;99.90;;;;;;5036224;28;20524;-74
2020/12/17 00:44:13;;;;;;;49.20;33.95;;;9.30;99.90;;;;;;5035352;28;20117;-74
2020/12/17 00:46:38;;;;;;;46.97;35.05;;;9.20;99.90;;;;;;5037487;28;20029;-73
2020/12/17 00:49:04;;;;;;;45.45;33.38;;;9.30;99.90;;;;;;5036913;28;20033;-74
2020/12/17 00:51:29;;;;;;;44.22;33.03;;;9.20;99.90;;;;;;5036685;28;20022;-73
2020/12/17 00:53:55;;;;;;;45.58;33.13;;;9.30;99.90;;;;;;5035899;28;20056;-73
2020/12/17 00:56:21;;;;;;;47.75;34.53;;;9.20;99.90;;;;;;5035182;28;20460;-73
2020/12/17 00:58:46;;;;;;;52.75;34.22;;;9.30;99.90;;;;;;5034740;28;20391;-73
2020/12/17 01:01:12;;;;;;;48.13;34.85;;;9.20;99.90;;;;;;5035141;28;20024;-73
2020/12/17 01:03:37;;;;;;;45.88;32.13;;;9.20;99.90;;;;;;5038240;28;20033;-72
2020/12/17 01:06:07;;;;;;;49.47;33.63;;;9.20;99.90;;;;;;5035962;28;20056;-73
2020/12/17 01:08:34;;;;;;;43.28;32.30;;;9.30;99.90;;;;;;5035615;28;20468;-72
2020/12/17 01:10:59;;;;;;;43.65;32.58;;;9.30;99.90;;;;;;5036158;28;20024;-73
2020/12/17 01:13:25;;;;;;;47.72;33.00;;;9.30;99.90;;;;;;5034657;28;20033;-72
2020/12/17 01:15:51;;;;;;;45.15;32.25;;;9.30;99.90;;;;;;5034416;28;20471;-73
2020/12/17 01:18:16;;;;;;;43.05;31.73;;;9.30;99.90;;;;;;5035259;28;20380;-73
2020/12/17 01:20:42;;;;;;;44.65;33.50;;;9.30;99.90;;;;;;5034405;28;20025;-73
2020/12/17 01:23:08;;;;;;;43.90;33.20;;;9.30;99.90;;;;;;5035517;28;20033;-74
2020/12/17 01:25:33;;;;;;;44.28;32.95;;;9.30;99.90;;;;;;5036846;28;20087;-74
2020/12/17 01:27:59;;;;;;;45.58;32.85;;;9.30;99.90;;;;;;5035727;28;20022;-72
2020/12/17 01:30:25;;;;;;;46.70;33.33;;;9.30;99.90;;;;;;5033817;28;20501;-72
2020/12/17 01:32:52;;;;;;;43.35;31.80;;;9.30;99.90;;;;;;5034627;28;20030;-73
2020/12/17 01:35:18;;;;;;;43.88;32.03;;;9.30;99.90;;;;;;5036816;28;20333;-73
2020/12/17 01:37:44;;;;;;;41.75;32.25;;;9.30;99.90;;;;;;5033918;28;20489;-74
2020/12/17 01:40:10;;;;;;;43.50;30.95;;;9.30;99.90;;;;;;5035009;28;20132;-73
2020/12/17 01:42:35;;;;;;;43.15;30.85;;;9.30;99.90;;;;;;5036944;28;20029;-73
2020/12/17 01:45:01;;;;;;;44.67;31.95;;;9.30;99.90;;;;;;5035344;28;20037;-74
2020/12/17 01:47:35;;;;;;;42.30;31.90;;;9.20;99.90;;;;;;5035134;28;20106;-73
2020/12/17 01:50:04;;;;;;;40.78;29.60;;;9.30;99.90;;;;;;5035539;28;20029;-73
2020/12/17 01:52:29;;;;;;;38.40;29.20;;;9.30;99.90;;;;;;5035730;28;20118;-75
2020/12/17 01:54:55;;;;;;;39.95;29.08;;;9.30;99.90;;;;;;5033683;28;20056;-73
2020/12/17 01:57:22;;;;;;;45.25;30.70;;;9.30;99.90;;;;;;5035186;28;20030;-73
2020/12/17 01:59:56;;;;;;;40.55;30.08;;;9.30;99.90;;;;;;5033650;28;20370;-73
2020/12/17 02:02:26;;;;;;;41.83;29.55;;;9.30;99.90;;;;;;5034925;28;20344;-73
2020/12/17 02:04:51;;;;;;;40.33;28.67;;;9.30;99.90;;;;;;5034930;28;20021;-73
2020/12/17 02:07:17;;;;;;;40.67;29.23;;;9.30;99.90;;;;;;5034568;28;20021;-73
2020/12/17 02:09:43;;;;;;;41.38;29.92;;;9.30;99.90;;;;;;5034278;28;20364;-73
2020/12/17 02:12:08;;;;;;;43.42;29.40;;;9.30;99.90;;;;;;5035723;28;20033;-73
2020/12/17 02:14:34;;;;;;;43.05;30.45;;;9.30;99.90;;;;;;5034803;28;20040;-72
2020/12/17 02:17:00;;;;;;;41.88;29.13;;;9.30;99.90;;;;;;5034272;28;20498;-72
2020/12/17 02:19:25;;;;;;;39.95;29.58;;;9.30;99.90;;;;;;5032995;28;20071;-73
2020/12/17 02:21:51;;;;;;;40.60;29.10;;;9.30;99.90;;;;;;5033856;28;20021;-73
2020/12/17 02:24:19;;;;;;;39.78;29.60;;;9.30;99.90;;;;;;5034341;28;20033;-72
2020/12/17 02:26:45;;;;;;;37.63;27.67;;;9.40;99.90;;;;;;5034080;28;20136;-73
2020/12/17 02:29:10;;;;;;;42.85;29.13;;;9.40;99.90;;;;;;5035182;28;20041;-72
2020/12/17 02:31:37;;;;;;;43.92;29.73;;;9.30;99.90;;;;;;5035155;28;20064;-74
2020/12/17 02:34:03;;;;;;;43.50;29.25;;;9.30;99.90;;;;;;5034305;28;20084;-74
2020/12/17 02:36:29;;;;;;;41.30;28.90;;;9.30;99.90;;;;;;5034952;28;20025;-73
2020/12/17 02:38:54;;;;;;;40.00;29.33;;;9.20;99.90;;;;;;5032504;28;20466;-72
2020/12/17 02:41:20;;;;;;;40.47;28.52;;;9.20;99.90;;;;;;5033306;28;20025;-73
2020/12/17 02:43:46;;;;;;;39.10;28.88;;;9.20;99.90;;;;;;5034271;28;20033;-72
2020/12/17 02:46:11;;;;;;;40.67;28.35;;;9.20;99.90;;;;;;5033978;28;20374;-72
2020/12/17 02:48:37;;;;;;;39.35;28.98;;;9.20;99.90;;;;;;5033937;28;20116;-73
2020/12/17 02:51:02;;;;;;;35.75;27.95;;;9.30;99.90;;;;;;5038369;28;20129;-72
2020/12/17 02:53:28;;;;;;;36.90;27.88;;;9.30;99.90;;;;;;5034521;28;20029;-72
2020/12/17 02:55:54;;;;;;;40.03;28.50;;;9.30;99.90;;;;;;5032624;28;20483;-73
2020/12/17 02:58:20;;;;;;;40.95;27.85;;;9.20;99.90;;;;;;5033584;28;20480;-73
2020/12/17 03:00:45;;;;;;;37.92;27.63;;;9.30;99.90;;;;;;5016916;28;20022;-73
2020/12/17 03:03:11;;;;;;;38.50;26.75;;;9.30;99.90;;;;;;5033358;28;20116;-74
2020/12/17 03:05:37;;;;;;;37.10;26.20;;;9.30;99.90;;;;;;5038693;28;20030;-73
2020/12/17 03:08:03;;;;;;;36.15;27.45;;;9.20;99.90;;;;;;5034076;28;20037;-73
2020/12/17 03:10:28;;;;;;;41.90;28.48;;;9.20;99.90;;;;;;5032932;28;20562;-73
2020/12/17 03:12:54;;;;;;;43.08;29.42;;;9.30;99.90;;;;;;5034287;28;20128;-73
2020/12/17 03:15:20;;;;;;;42.25;28.65;;;9.20;99.90;;;;;;5017001;28;20072;-73
2020/12/17 03:17:46;;;;;;;41.65;29.52;;;9.20;99.90;;;;;;5033476;28;20387;-74
2020/12/17 03:20:12;;;;;;;39.95;28.13;;;9.20;99.90;;;;;;5036903;28;20030;-71
2020/12/17 03:22:38;;;;;;;36.78;27.55;;;9.20;99.90;;;;;;5035136;28;20030;-71
2020/12/17 03:25:06;;;;;;;42.92;28.77;;;9.20;99.90;;;;;;5034418;28;20029;-73
2020/12/17 03:27:32;;;;;;;38.00;27.17;;;9.30;99.90;;;;;;5034850;28;20028;-72
2020/12/17 03:29:59;;;;;;;35.78;26.88;;;9.30;99.90;;;;;;5039324;28;20067;-73
2020/12/17 03:32:25;;;;;;;37.55;27.58;;;9.30;99.90;;;;;;5036779;28;20439;-74
2020/12/17 03:34:51;;;;;;;38.80;26.80;;;9.30;99.90;;;;;;5037787;28;20450;-73
2020/12/17 03:37:17;;;;;;;35.42;25.23;;;9.30;99.90;;;;;;5039704;28;20450;-73
2020/12/17 03:39:42;;;;;;;35.47;26.05;;;9.30;99.90;;;;;;5036139;28;20443;-73
2020/12/17 03:42:08;;;;;;;33.35;25.00;;;9.30;99.90;;;;;;5037789;28;20029;-72
2020/12/17 03:44:33;;;;;;;36.50;26.10;;;9.30;99.90;;;;;;5037800;28;20033;-73
2020/12/17 03:46:59;;;;;;;36.60;25.05;;;9.20;99.90;;;;;;5038484;28;20033;-73
2020/12/17 03:49:25;;;;;;;35.53;25.33;;;9.30;99.90;;;;;;5036611;28;20475;-72
2020/12/17 03:51:51;;;;;;;35.97;24.20;;;9.30;99.90;;;;;;5041371;28;20104;-73
2020/12/17 03:54:17;;;;;;;32.50;25.15;;;9.30;99.90;;;;;;5035912;28;20120;-72
2020/12/17 03:56:42;;;;;;;32.30;24.45;;;9.30;99.90;;;;;;5019754;28;20014;-73
2020/12/17 03:59:08;;;;;;;37.92;25.67;;;9.30;99.90;;;;;;5037639;28;20053;-72
2020/12/17 04:01:33;;;;;;;35.53;25.58;;;9.30;99.90;;;;;;5039407;28;20137;-72
2020/12/17 04:03:59;;;;;;;34.10;25.48;;;9.30;99.90;;;;;;5036918;28;20026;-73
2020/12/17 04:06:25;;;;;;;34.72;25.35;;;9.30;99.90;;;;;;5036452;28;20475;-73
2020/12/17 04:08:50;;;;;;;34.67;25.42;;;9.30;99.90;;;;;;5038138;28;20035;-73
2020/12/17 04:11:16;;;;;;;32.88;23.92;;;9.20;99.90;;;;;;5036172;28;20026;-73
2020/12/17 04:13:42;;;;;;;36.53;25.70;;;9.20;99.90;;;;;;5038271;28;20043;-73
2020/12/17 04:16:07;;;;;;;34.83;24.50;;;9.20;99.90;;;;;;5036844;28;20109;-73
2020/12/17 04:18:33;;;;;;;34.58;25.20;;;9.20;99.90;;;;;;5037321;28;20060;-72
2020/12/17 04:21:00;;;;;;;34.72;25.27;;;9.20;99.90;;;;;;5037959;28;20022;-74
2020/12/17 04:23:25;;;;;;;36.50;26.02;;;9.30;99.90;;;;;;5039558;28;20033;-72
2020/12/17 04:25:51;;;;;;;31.75;25.25;;;9.30;99.90;;;;;;5036671;28;20026;-73
2020/12/17 04:28:17;;;;;;;35.05;25.40;;;9.20;99.90;;;;;;5037618;28;20445;-72
2020/12/17 04:30:42;;;;;;;33.83;24.35;;;9.30;99.90;;;;;;5036982;28;20030;-72
2020/12/17 04:33:08;;;;;;;36.20;26.10;;;9.30;99.90;;;;;;5037236;28;20025;-73
2020/12/17 04:35:33;;;;;;;39.40;26.90;;;9.20;99.90;;;;;;5036874;28;20511;-73
2020/12/17 04:37:59;;;;;;;37.88;27.23;;;9.30;99.90;;;;;;5038438;28;20032;-73
2020/12/17 04:40:25;;;;;;;35.45;26.70;;;9.30;99.90;;;;;;5035330;28;20025;-73
2020/12/17 04:42:51;;;;;;;40.35;29.48;;;9.20;99.90;;;;;;5035489;28;20056;-72
2020/12/17 04:45:19;;;;;;;41.13;29.15;;;9.20;99.90;;;;;;5035861;28;20029;-72
2020/12/17 04:47:46;;;;;;;41.35;29.88;;;9.20;99.90;;;;;;5035080;28;20041;-72
2020/12/17 04:50:14;;;;;;;39.65;28.77;;;9.20;99.90;;;;;;5037004;28;20033;-71
2020/12/17 04:52:42;;;;;;;36.40;27.60;;;9.20;99.90;;;;;;5034630;28;20091;-73
2020/12/17 04:55:09;;;;;;;37.45;26.52;;;9.20;99.90;;;;;;5039930;28;20113;-72
2020/12/17 04:57:46;;;;;;;39.10;27.40;;;9.20;99.90;;;;;;5036443;28;20032;-72
2020/12/17 05:00:15;;;;;;;37.08;27.42;;;9.30;99.90;;;;;;5035594;28;20025;-73
2020/12/17 05:02:48;;;;;;;39.35;27.90;;;9.20;99.90;;;;;;5035590;28;20113;-71
2020/12/17 05:05:14;;;;;;;37.08;28.58;;;9.20;99.90;;;;;;5034765;28;20033;-73
2020/12/17 05:07:40;;;;;;;40.03;28.55;;;9.20;99.90;;;;;;5037595;28;20100;-72
2020/12/17 05:10:07;;;;;;;37.13;26.92;;;9.20;99.90;;;;;;5039875;28;20103;-72
2020/12/17 05:12:34;;;;;;;38.65;27.30;;;9.20;99.90;;;;;;5036487;28;20065;-72
2020/12/17 05:14:59;;;;;;;37.72;27.30;;;9.20;99.90;;;;;;5036228;28;20095;-72
2020/12/17 05:17:25;;;;;;;39.33;26.63;;;9.20;99.90;;;;;;5036520;28;20430;-73
2020/12/17 05:19:51;;;;;;;38.30;28.27;;;9.20;99.90;;;;;;5034525;28;20439;-72
2020/12/17 05:22:17;;;;;;;40.08;27.02;;;9.20;99.90;;;;;;5034885;28;20053;-74
2020/12/17 05:24:44;;;;;;;37.42;28.77;;;9.20;99.90;;;;;;5038398;28;20037;-72
2020/12/17 05:27:10;;;;;;;42.28;29.08;;;9.30;99.90;;;;;;5035202;28;20021;-72
2020/12/17 05:29:40;;;;;;;41.58;30.67;;;9.30;99.90;;;;;;5035710;28;20040;-74
2020/12/17 05:32:06;;;;;;;38.67;28.33;;;9.30;99.90;;;;;;5036047;28;20025;-74
2020/12/17 05:34:33;;;;;;;38.22;27.25;;;9.30;99.90;;;;;;5035230;28;20056;-75
2020/12/17 05:36:59;;;;;;;38.58;27.70;;;9.30;99.90;;;;;;5035633;28;20100;-73
2020/12/17 05:39:25;;;;;;;37.60;27.42;;;9.30;99.90;;;;;;5036310;28;20151;-74
2020/12/17 05:41:53;;;;;;;37.42;27.95;;;9.30;99.90;;;;;;5039610;28;20576;-74
2020/12/17 05:44:25;;;;;;;39.72;27.98;;;9.30;99.90;;;;;;5034591;28;20030;-74
2020/12/17 05:46:51;;;;;;;37.78;26.83;;;9.30;99.90;;;;;;5035942;28;20033;-74
2020/12/17 05:49:29;;;;;;;39.97;28.25;;;9.30;99.90;;;;;;5034716;28;20037;-73
2020/12/17 05:52:27;;;;;;;39.60;28.05;;;9.30;99.90;;;;;;5033546;28;20437;-75
2020/12/17 05:54:53;;;;;;;42.60;29.40;;;9.30;99.90;;;;;;5012949;28;20033;-74
2020/12/17 05:57:20;;;;;;;37.10;26.42;;;9.20;99.90;;;;;;5039928;28;20045;-74
2020/12/17 05:59:56;;;;;;;39.95;27.50;;;9.30;99.90;;;;;;5034345;28;20451;-75
2020/12/17 06:02:26;;;;;;;38.13;27.17;;;9.30;99.90;;;;;;5035856;28;20029;-73
2020/12/17 06:05:21;;;;;;;34.53;24.42;;;9.20;99.90;;;;;;5034599;28;20025;-73
2020/12/17 06:07:50;;;;;;;32.92;23.95;;;9.20;99.90;;;;;;5031998;28;20048;-75
2020/12/17 06:10:24;;;;;;;32.75;25.17;;;9.20;99.90;;;;;;5036215;28;20100;-75
2020/12/17 06:12:52;;;;;;;33.33;24.60;;;9.20;99.90;;;;;;5038467;28;20117;-75
2020/12/17 06:15:20;;;;;;;36.08;24.95;;;9.20;99.90;;;;;;5047967;28;20483;-75
2020/12/17 06:17:51;;;;;;;31.27;23.15;;;9.30;99.90;;;;;;5054443;28;20021;-73
2020/12/17 06:20:17;;;;;;;34.75;24.52;;;9.30;99.90;;;;;;5036618;28;20060;-74
2020/12/17 06:22:51;;;;;;;35.15;24.55;;;9.20;99.90;;;;;;5053682;28;20059;-75
2020/12/17 06:25:17;;;;;;;32.15;24.40;;;9.30;99.90;;;;;;5054593;28;20025;-75
2020/12/17 06:27:46;;;;;;;32.55;24.23;;;9.20;99.90;;;;;;5059672;28;20053;-73
2020/12/17 06:30:16;;;;;;;35.28;25.15;;;9.30;99.90;;;;;;5053222;28;20095;-74
2020/12/17 06:32:41;;;;;;;34.78;24.77;;;9.20;99.90;;;;;;5056461;28;20055;-74
2020/12/17 06:35:18;;;;;;;34.25;24.40;;;9.20;99.90;;;;;;5055222;28;20021;-72
2020/12/17 06:37:46;;;;;;;36.25;26.45;;;9.20;99.90;;;;;;5054678;28;20029;-73
2020/12/17 06:40:11;;;;;;;38.28;25.92;;;9.20;99.90;;;;;;5039471;28;20056;-75
2020/12/17 06:42:38;;;;;;;32.95;23.98;;;9.20;99.90;;;;;;5048399;28;20108;-72
2020/12/17 06:45:24;;;;;;;35.35;26.00;;;9.20;99.90;;;;;;5052409;28;20021;-74
2020/12/17 06:47:50;;;;;;;33.55;25.00;;;9.20;99.90;;;;;;5053261;28;20041;-73
2020/12/17 06:50:23;;;;;;;35.10;25.60;;;9.10;99.90;;;;;;5035850;28;20313;-72
2020/12/17 06:53:06;;;;;;;35.42;24.02;;;9.20;99.90;;;;;;5033204;28;20037;-74
2020/12/17 06:55:48;;;;;;;30.45;23.33;;;9.10;99.90;;;;;;5037493;28;20022;-74
2020/12/17 06:58:22;;;;;;;32.33;23.92;;;9.10;99.90;;;;;;5035483;28;20179;-74
2020/12/17 07:00:51;;;;;;;36.35;24.50;;;9.10;99.90;;;;;;5033893;28;20018;-74
2020/12/17 07:03:42;;;;;;;30.63;21.98;;;9.20;99.90;;;;;;5037484;28;20049;-76
2020/12/17 07:06:26;;;;;;;33.47;23.45;;;9.20;99.90;;;;;;5046346;28;20024;-73
2020/12/17 07:08:54;;;;;;;29.63;22.27;;;9.30;99.90;;;;;;5057877;28;20078;-73
2020/12/17 07:11:45;;;;;;;33.55;22.95;;;9.20;99.90;;;;;;5052317;28;20386;-72
2020/12/17 07:14:17;;;;;;;31.90;23.23;;;9.30;99.90;;;;;;5044247;28;20467;-72
2020/12/17 07:16:55;;;;;;;33.90;22.60;;;9.30;99.90;;;;;;5043205;28;20108;-73
2020/12/17 07:19:22;;;;;;;35.65;23.85;;;9.30;99.90;;;;;;5038024;28;20029;-74
2020/12/17 07:21:51;;;;;;;32.35;23.08;;;9.30;99.90;;;;;;5055460;28;20021;-73
2020/12/17 07:24:28;;;;;;;36.78;23.83;;;9.30;99.90;;;;;;5048350;28;20037;-74
2020/12/17 07:26:58;;;;;;;32.58;23.92;;;9.20;99.90;;;;;;5042559;28;20021;-75
2020/12/17 07:29:50;;;;;;;34.40;25.23;;;9.20;99.90;;;;;;5041770;28;20042;-72
2020/12/17 07:32:34;;;;;;;36.13;24.63;;;9.20;99.90;;;;;;5037050;28;20033;-73
2020/12/17 07:35:24;;;;;;;33.17;23.75;;;9.20;99.90;;;;;;5050674;28;20032;-74
2020/12/17 07:37:49;;;;;;;;;;;9.30;99.90;;;;;;5038051;28;20108;-72
2020/12/17 07:40:19;;;;;;;37.30;24.40;;;9.30;99.90;;;;;;5038352;28;19944;-75
2020/12/17 07:42:59;;;;;;;33.03;23.10;;;9.30;99.90;;;;;;5047955;28;20025;-74
2020/12/17 07:45:39;;;;;;;34.78;23.90;;;9.40;99.90;;;;;;5043292;28;20040;-74
2020/12/17 07:48:23;;;;;;;;;;;9.40;99.90;;;;;;5056352;28;20055;-72
2020/12/17 07:50:48;;;;;;;36.83;25.17;;;9.40;99.90;;;;;;5057366;28;20339;-72
2020/12/17 07:53:23;;;;;;;36.67;25.30;;;9.40;99.90;;;;;;5056315;28;20498;-74
2020/12/17 07:55:53;;;;;;;35.30;24.10;;;9.50;99.90;;;;;;5058022;28;20021;-74
2020/12/17 07:58:19;;;;;;;33.97;24.02;;;9.50;99.90;;;;;;5052479;28;20029;-74
2020/12/17 08:00:45;;;;;;;34.42;24.35;;;9.50;99.90;;;;;;5052913;28;20355;-74
2020/12/17 08:03:11;;;;;;;33.55;24.45;;;9.50;99.90;;;;;;5040827;28;20467;-72
2020/12/17 08:05:40;;;;;;;34.90;23.98;;;9.60;99.90;;;;;;5037881;28;20029;-74
2020/12/17 08:08:06;;;;;;;35.85;24.23;;;9.60;99.90;;;;;;5037640;28;20040;-72
2020/12/17 08:10:38;;;;;;;35.22;24.13;;;9.60;99.90;;;;;;5054863;28;20025;-73
2020/12/17 08:13:04;;;;;;;37.67;25.35;;;9.60;99.90;;;;;;5054202;28;20059;-73
2020/12/17 08:15:29;;;;;;;32.45;23.63;;;9.50;99.90;;;;;;5058838;28;20025;-76
2020/12/17 08:17:55;;;;;;;33.65;24.90;;;9.50;99.90;;;;;;5059717;28;20021;-76
2020/12/17 08:20:21;;;;;;;32.60;23.52;;;9.50;99.90;;;;;;5057429;28;20017;-78
2020/12/17 08:22:48;;;;;;;38.70;25.50;;;9.40;99.90;;;;;;5060697;28;20074;-77
2020/12/17 08:25:16;;;;;;;40.28;27.27;;;9.40;99.90;;;;;;5056806;28;20017;-77
2020/12/17 08:27:42;;;;;;;35.90;25.05;;;9.30;99.90;;;;;;5059345;28;20025;-79
2020/12/17 08:30:07;;;;;;;36.58;25.83;;;9.20;99.90;;;;;;5058485;28;20048;-79
2020/12/17 08:32:33;;;;;;;38.42;26.65;;;9.10;99.90;;;;;;5056946;28;20057;-74
2020/12/17 08:34:59;;;;;;;39.47;26.98;;;9.10;99.90;;;;;;5056650;28;20025;-76
2020/12/17 08:37:25;;;;;;;40.45;26.63;;;9.00;99.90;;;;;;5057256;28;20025;-75
2020/12/17 08:39:58;;;;;;;38.28;26.73;;;8.90;99.90;;;;;;5054494;28;20499;-74
2020/12/17 08:42:31;;;;;;;40.47;27.92;;;8.90;99.90;;;;;;5052894;28;20433;-75
2020/12/17 08:45:03;;;;;;;39.45;28.70;;;8.80;99.90;;;;;;5040267;28;20034;-74
2020/12/17 08:47:33;;;;;;;39.55;28.10;;;8.80;99.90;;;;;;5033852;28;20029;-75
2020/12/17 08:50:01;;;;;;;40.55;28.80;;;8.80;99.90;;;;;;5034805;28;20061;-75
2020/12/17 08:52:27;;;;;;;42.50;28.13;;;8.70;99.90;;;;;;5035290;28;20021;-75
2020/12/17 08:55:07;;;;;;;42.40;29.85;;;8.70;99.90;;;;;;5035452;28;20124;-75
2020/12/17 08:57:33;;;;;;;44.22;28.75;;;8.70;99.90;;;;;;5035473;28;20040;-75
2020/12/17 08:59:59;;;;;;;42.30;30.08;;;8.70;99.90;;;;;;5035059;28;20029;-75
2020/12/17 09:02:29;;;;;;;40.72;28.73;;;8.60;99.90;;;;;;5037284;28;20475;-75
2020/12/17 09:04:59;;;;;;;40.53;28.77;;;8.60;99.90;;;;;;5036505;28;20448;-75
2020/12/17 09:07:29;;;;;;;40.22;28.33;;;8.70;99.90;;;;;;5043330;28;20498;-75
2020/12/17 09:10:11;;;;;;;41.65;29.40;;;8.80;99.90;;;;;;5039078;28;20040;-76
2020/12/17 09:12:37;;;;;;;41.53;29.50;;;8.90;99.90;;;;;;5043931;28;20128;-76
2020/12/17 09:15:11;;;;;;;44.10;29.63;;;9.00;99.90;;;;;;5047060;28;20116;-76
2020/12/17 09:17:37;;;;;;;41.00;29.38;;;9.10;99.90;;;;;;5055703;28;20039;-74
2020/12/17 09:20:23;;;;;;;45.90;31.38;;;9.20;99.90;;;;;;5058414;28;20017;-72
2020/12/17 09:22:49;;;;;;;44.70;31.48;;;9.20;99.90;;;;;;5052629;28;20039;-74
2020/12/17 09:25:15;;;;;;;45.97;32.28;;;9.30;99.90;;;;;;5055578;28;20037;-75
2020/12/17 09:27:45;;;;;;;44.78;31.45;;;9.30;99.90;;;;;;5048199;28;20021;-75
2020/12/17 09:30:16;;;;;;;48.38;32.03;;;9.40;99.90;;;;;;5050732;28;20108;-74
2020/12/17 09:54:12;;;;;;;42.97;30.35;;;9.50;99.90;;;;;;5850634;23;20522;-75
2020/12/17 09:56:37;;;;;;;42.25;31.48;;;9.60;99.90;;;;;;5057931;28;20086;-77
